Latest Coastal Weather Observations for Low Head

IDT60701

Issued at 8:16 pm EDT Sunday 21 December 2014 (issued every 10 minutes, with the page automatically refreshed every 10 minutes)

About coastal observations | Map of coastal stations | Coastal observations for TAS | Marine services | Other Formats
Station Details ID: 091293 Name: LOW HEAD Lat: -41.05 Lon: 146.79 Height: 3.0 m
Data from the previous 72 hours. | See also: Recent months at Low Head
Date/Time
EDT
Temp

°C
Wind Pressure Rain
since 9am
mm
Weather Cloud Vis
km
Sea
Height
m
Swell
Dir
 
Speed
knots
Gust
knots
hPa Trend Height
m
Period
s
Dir
21/08:00pm 16.8 NNW 9 11 1013.0 - 0.0 - - - - - - -
21/07:30pm 16.9 NW 9 11 1013.1 - 0.0 - - - - - - -
21/07:00pm 16.8 NW 10 12 1012.8 - 0.0 - - - - - - -
21/06:30pm 17.1 NW 12 14 1012.8 - 0.0 - - - - - - -
21/06:00pm 17.4 NW 11 13 1012.9 - 0.0 - - - - - - -
21/05:30pm 17.2 NW 13 15 1012.9 - 0.0 - - - - - - -
21/05:00pm 18.0 NW 12 15 1013.4 - 0.0 - - - - - - -
21/04:30pm 17.5 NW 12 15 1013.6 - 0.0 - - - - - - -
21/04:00pm 17.7 NNW 11 13 1013.5 - 0.0 - - - - - - -
21/03:30pm 17.7 NW 11 14 1013.8 - 0.0 - - - - - - -
21/03:00pm 17.6 NW 12 14 1013.9 R 0.0 Fine Cloudy 25 <0.5 0.5 3 NW
21/02:30pm 17.2 NNW 12 15 1014.0 - 0.0 - - - - - - -
21/02:00pm 17.5 NNW 14 16 1014.4 - 0.0 - - - - - - -
21/01:30pm 17.8 NNW 13 16 1014.9 - 0.0 - - - - - - -
21/01:00pm 18.6 NW 14 16 1015.4 - 0.0 - - - - - - -
21/12:30pm 18.3 NNW 11 13 1015.2 - 0.0 - - - - - - -
21/12:00pm 18.4 NNW 10 12 1015.2 - 0.0 - - - - - - -
21/11:30am 18.3 N 9 10 1015.4 - 0.0 - - - - - - -
21/11:00am 18.2 N 8 10 1015.2 - 0.0 - - - - - - -
21/10:30am 17.6 N 7 8 1015.2 - 0.0 - - - - - - -
21/10:00am 17.3 N 9 10 1015.4 - 0.0 - - - - - - -
21/09:30am 17.1 N 10 11 1015.3 - 0.0 - - - - - - -
21/09:00am 16.6 N 9 11 1015.1 F 0.0 Fine Mostly clear 25 1 1.0 3 -
21/08:30am 16.4 N 12 13 1015.1 - 0.0 - - - - - - -
21/08:00am 16.0 N 12 16 1014.7 - 0.0 - - - - - - -
21/07:30am 15.7 NNE 10 11 1014.5 - 0.0 - - - - - - -
21/07:00am 15.5 NNE 7 8 1014.6 - 0.0 - - - - - - -
21/06:30am 15.1 N 5 6 1015.2 - 0.0 - - - - - - -
21/06:00am 15.1 N 6 7 1014.9 F 0.0 Fine Partly cloudy 25 <0.1 0.5 3 NW
21/05:30am 15.2 N 8 9 1014.5 - 0.0 - - - - - - -
21/05:00am 15.2 NNE 10 12 1014.0 - 0.0 - - - - - - -
21/04:30am 15.3 NNE 12 13 1013.9 - 0.0 - - - - - - -
21/04:00am 15.7 NNE 12 13 1013.7 - 0.0 - - - - - - -
21/03:30am 15.8 NE 12 13 1013.7 - 0.0 - - - - - - -
21/03:00am 15.6 ENE 17 21 1013.8 - 0.0 - - - - - - -
21/02:30am 15.8 ENE 20 24 1013.9 - 0.0 - - - - - - -
21/02:00am 15.9 ENE 19 22 1014.1 - 0.0 - - - - - - -
21/01:30am 16.2 ENE 24 28 1014.1 - 0.0 - - - - - - -
21/01:00am 16.1 ENE 22 26 1014.4 - 0.0 - - - - - - -
21/12:53am 16.0 E 20 25 1014.4 - 0.0 - - - - - - -
21/12:30am 15.2 E 12 14 1014.6 - 0.0 - - - - - - -
21/12:00am 15.6 ENE 9 11 1014.6 - 0.0 - - - - - - -
 
Date/Time
EDT
Temp

°C
Wind Pressure Rain
since 9am
mm
Weather Cloud Vis
km
Sea
Height
m
Swell
Dir
 
Speed
knots
Gust
knots
hPa Trend Height
m
Period
s
Dir
20/11:30pm 16.4 W 9 12 1014.6 - 0.0 - - - - - - -
20/11:00pm 16.5 W 10 13 1014.4 - 0.0 - - - - - - -
20/10:30pm 16.9 W 13 16 1014.1 - 0.0 - - - - - - -
20/10:00pm 17.3 W 15 17 1013.8 - 0.0 - - - - - - -
20/09:30pm 17.6 W 17 19 1013.7 - 0.0 - - - - - - -
20/09:00pm 17.8 W 16 18 1013.4 - 0.0 - - - - - - -
20/08:30pm 18.2 W 15 17 1013.3 - 0.0 - - - - - - -
20/08:00pm 18.2 WNW 13 16 1013.1 - 0.0 - - - - - - -
20/07:30pm 18.9 WNW 18 20 1012.8 - 0.0 - - - - - - -
20/07:00pm 19.0 WNW 20 22 1012.4 - 0.0 - - - - - - -
20/06:30pm 19.1 NW 20 22 1012.2 - 0.0 - - - - - - -
20/06:00pm 19.5 WNW 20 22 1012.1 - 0.0 - - - - - - -
20/05:30pm 19.8 NW 18 22 1012.1 - 0.0 - - - - - - -
20/05:00pm 19.7 WNW 21 25 1012.2 - 0.0 - - - - - - -
20/04:30pm 19.6 NW 21 25 1012.3 - 0.0 - - - - - - -
20/04:00pm 20.1 WNW 21 25 1012.5 - 0.0 - - - - - - -
20/03:30pm 19.8 WNW 22 27 1012.7 - 0.0 - - - - - - -
20/03:00pm 20.0 NW 21 25 1012.7 R 0.0 Fine Mostly clear 25 2 1.5 3 NW
20/02:30pm 19.9 NW 20 23 1012.7 - 0.0 - - - - - - -
20/02:00pm 19.6 WNW 21 24 1012.8 - 0.0 - - - - - - -
20/01:30pm 19.2 NW 22 26 1012.9 - 0.0 - - - - - - -
20/01:00pm 19.1 WNW 23 27 1013.2 - 0.0 - - - - - - -
20/12:30pm 18.6 WNW 21 26 1013.3 - 0.0 - - - - - - -
20/12:00pm 18.1 WNW 20 23 1013.7 - 0.0 - - - - - - -
20/11:30am 17.9 WNW 21 25 1013.7 - 0.0 - - - - - - -
20/11:00am 17.7 WNW 20 24 1013.7 - 0.0 - - - - - - -
20/10:30am 17.3 WNW 22 25 1013.9 - 0.0 - - - - - - -
20/10:00am 17.3 WNW 21 25 1013.9 - 0.0 - - - - - - -
20/09:30am 16.6 WNW 21 25 1014.0 - 0.0 - - - - - - -
20/09:00am 16.5 W 21 25 1014.1 F 0.0 Fine Partly cloudy 25 2 1.5 3 NW
20/08:30am 16.2 WNW 21 24 1014.0 - 0.0 - - - - - - -
20/08:00am 15.4 W 19 25 1013.9 - 0.0 - - - - - - -
20/07:30am 15.3 W 20 23 1013.6 - 0.0 - - - - - - -
20/07:00am 15.3 WNW 20 23 1013.5 - 0.0 - - - - - - -
20/06:30am 15.0 WNW 20 24 1013.2 - 0.0 - - - - - - -
20/06:00am 15.0 W 22 24 1013.1 F 0.0 Fine Mostly cloudy 25 1 1.0 3 NW
20/05:30am 15.0 W 20 23 1013.0 - 0.0 - - - - - - -
20/05:00am 14.9 W 24 27 1012.9 - 0.0 - - - - - - -
20/04:30am 14.8 W 24 26 1012.8 - 0.0 - - - - - - -
20/04:00am 14.8 W 22 25 1012.8 - 0.0 - - - - - - -
20/03:30am 14.7 W 21 25 1013.0 - 0.0 - - - - - - -
20/03:00am 14.8 W 20 24 1013.4 - 0.0 - - - - - - -
20/02:30am 14.8 W 21 24 1013.6 - 0.0 - - - - - - -
20/02:00am 14.4 W 20 23 1014.2 - 0.0 - - - - - - -
20/01:30am 14.5 W 21 24 1014.5 - 0.0 - - - - - - -
20/01:00am 14.5 W 20 23 1014.9 - 0.0 - - - - - - -
20/12:30am 14.8 W 22 27 1014.7 - 0.0 - - - - - - -
20/12:00am 14.8 WSW 20 24 1014.8 - 0.0 - - - - - - -
 
Date/Time
EDT
Temp

°C
Wind Pressure Rain
since 9am
mm
Weather Cloud Vis
km
Sea
Height
m
Swell
Dir
 
Speed
knots
Gust
knots
hPa Trend Height
m
Period
s
Dir
19/11:30pm 14.8 WSW 14 18 1015.2 - 0.0 - - - - - - -
19/11:00pm 15.0 WSW 15 19 1015.5 - 0.0 - - - - - - -
19/10:30pm 15.0 WSW 16 19 1015.7 - 0.0 - - - - - - -
19/10:00pm 15.2 WSW 17 22 1015.5 - 0.0 - - - - - - -
19/09:30pm 15.3 WSW 22 28 1015.1 - 0.0 - - - - - - -
19/09:00pm 15.6 W 24 27 1014.6 - 0.0 - - - - - - -
19/08:30pm 16.1 W 24 27 1014.4 - 0.0 - - - - - - -
19/08:00pm 16.4 W 21 25 1014.3 - 0.0 - - - - - - -
19/07:30pm 16.9 W 20 24 1013.8 - 0.0 - - - - - - -
19/07:00pm 17.4 WSW 17 20 1013.4 - 0.0 - - - - - - -
19/06:30pm 17.6 WSW 17 21 1013.1 - 0.0 - - - - - - -
19/06:00pm 18.0 W 21 25 1012.9 - 0.0 - - - - - - -
19/05:30pm 18.5 W 19 22 1012.8 - 0.0 - - - - - - -
19/05:00pm 18.9 WNW 19 22 1012.8 - 0.0 - - - - - - -
19/04:30pm 18.8 NW 20 23 1013.0 - 0.0 - - - - - - -
19/04:00pm 18.2 NW 22 25 1013.0 - 0.0 - - - - - - -
19/03:30pm 18.4 NW 21 25 1013.0 - 0.0 - - - - - - -
19/03:00pm 18.5 WNW 22 25 1012.9 R 0.0 Fine Mostly cloudy 25 1 1.3 3 NW
19/02:30pm 18.8 NW 21 25 1013.0 - 0.0 - - - - - - -
19/02:00pm 18.6 WNW 22 25 1012.8 - 0.0 - - - - - - -
19/01:30pm 18.6 WNW 19 21 1012.9 - 0.0 - - - - - - -
19/01:00pm 18.1 WNW 18 21 1013.0 - 0.0 - - - - - - -
19/12:30pm 18.1 WNW 16 19 1012.9 - 0.0 - - - - - - -
19/12:00pm 17.3 WNW 15 18 1012.9 - 0.0 - - - - - - -
19/11:30am 16.8 WNW 15 17 1013.0 - 0.0 - - - - - - -
19/11:00am 15.9 W 15 17 1012.9 - 0.0 - - - - - - -
19/10:30am 15.6 W 15 18 1013.0 - 0.0 - - - - - - -
19/10:00am 15.1 W 16 19 1013.0 - 0.0 - - - - - - -
19/09:30am 14.8 W 15 17 1013.0 - 0.0 - - - - - - -
19/09:00am 14.8 WSW 11 14 1012.8 F 0.2 Fine Mostly clear 25 1 1.0 3 NW
19/08:30am 14.0 WSW 14 16 1012.4 - 0.2 - - - - - - -
19/08:00am 13.1 WSW 15 18 1012.3 - 0.2 - - - - - - -
19/07:30am 12.8 WSW 16 18 1011.8 - 0.2 - - - - - - -
19/07:00am 12.4 WSW 15 17 1011.3 - 0.2 - - - - - - -
19/06:30am 12.4 WSW 14 16 1010.9 - 0.2 - - - - - - -
19/06:00am 11.8 WSW 10 13 1010.5 F 0.2 Fine Mostly clear 25 <0.5 0.5 3 NW
19/05:30am 12.0 WSW 11 14 1010.2 - 0.2 - - - - - - -
19/05:00am 11.3 SSW 7 9 1010.0 - 0.2 - - - - - - -
19/04:30am 11.7 WSW 9 11 1009.4 - 0.2 - - - - - - -
19/04:00am 12.3 WSW 11 14 1009.1 - 0.2 - - - - - - -
19/03:30am 12.5 WSW 13 15 1009.0 - 0.2 - - - - - - -
19/03:00am 12.5 SW 10 13 1008.9 - 0.2 - - - - - - -
19/02:30am 12.7 SW 11 14 1008.7 - 0.2 - - - - - - -
19/02:00am 13.1 SW 13 16 1008.8 - 0.2 - - - - - - -
19/01:30am 13.6 WSW 16 19 1008.5 - 0.2 - - - - - - -
19/01:00am 13.6 W 15 19 1008.5 - 0.2 - - - - - - -
19/12:30am 13.9 WSW 19 22 1008.3 - 0.2 - - - - - - -
19/12:00am 14.1 WSW 18 21 1007.9 - 0.2 - - - - - - -
 
Date/Time
EDT
Temp

°C
Wind Pressure Rain
since 9am
mm
Weather Cloud Vis
km
Sea
Height
m
Swell
Dir
 
Speed
knots
Gust
knots
hPa Trend Height
m
Period
s
Dir
18/11:30pm 14.2 WSW 21 24 1007.6 - 0.2 - - - - - - -
18/11:00pm 14.6 W 20 23 1007.3 - 0.2 - - - - - - -
18/10:30pm 14.7 WSW 20 24 1007.1 - 0.2 - - - - - - -
18/10:00pm 15.4 W 20 25 1006.8 - 0.2 - - - - - - -
18/09:30pm 15.6 WSW 16 20 1006.6 - 0.2 - - - - - - -
18/09:00pm 15.7 W 17 19 1006.1 - 0.2 - - - - - - -
18/08:30pm 15.8 W 19 22 1005.8 - 0.2 - - - - - - -
18/08:16pm 15.7 W 18 23 1005.6 - 0.2 - - - - - - -

Other Formats:

Comma delimited format used in spreadsheet applications
http://www.bom.gov.au/fwo/IDT60701/IDT60701.95964.axf

JavaScript Object Notation format (JSON) in row-major order
http://www.bom.gov.au/fwo/IDT60701/IDT60701.95964.json